Avenal, California
Current Conditions -  °F | °C
As of 1:56 PM on Thursday 23 Oct 2014 (Local Time) from KNLC Reporting Station
Scattered Clouds Scattered Clouds  
Wind Chill: 78°   Ceiling: Unl
Heat Index: 78°   Visibility: 10mi
Dew Point: 43°   Wind: 0mph
Humidity: 29%   Direction: NA
Pressure: 30.01"   Gusts: NA
Location:  36°N, 120.13°W
Report Text: KNLC 232056Z 00000KT 10SM FEW170 SCT240 26/06 A3001 RMK AO2 SLP162 RH/28 T02560061 58024 $
Loading
Personal Weather Stations






























Interactive Weather Map New forecast layout! Learn more

10-Day Weather Forecast

Advertisements
Track Severe Weather on mobile